Strona główna
METAR-TAF:

METAR-TAF

Lotnisko :

Port lotniczy Maribor

Maribor, Słowenia

Szerokość geograficzna: 46-29N, Długość geograficzna: 015-41E, wysokość: 264 m

Aktualna obserwacja pogody

Raport powstał 22 minut temu, godzina 02:30 UTC
Wiatr 4 kt od północno-północny zachód
Temperatura 2°C
Wilgotność 80%
Ciśnienie 1027 hPa
Widzialność 10 km lub więcej

METAR: LJMB 060230Z AUTO 34004KT 9999 NCD 02/M01 Q1027

czas: 04:52 (02:52 UTC)

Prognoza

Raport powstał 3 godziny i 52 minut temu, godzina 23:00 UTC
Prognoza ważna od 06 godzina 00 UTC do 06 godzina 24 UTC
Wiatr 5 kt od północno-północny wschód
Widzialność 10 km lub więcej
Brak chmur poniżej 1500 m i brak chmur cumulonimbus

TAF: LJMB 052300Z 0600/0624 03005KT CAVOK

Obserwacja i prognoza pogody dla ponad 4000 lotnisk (raport METAR i TAF).

Dostępne stacje oznaczono żółtymi i czerwonymi punktami na mapie.

Najedź kursorem aby zobaczyć nazwę stacji.

Kliknij aby zobaczyć obserwacje i prognozy pogody.

Aby zmienić mapę: kliknij na zielony przycisk z czarnym krzyżykiem, aby powiększyć; na zielony przycisk z myślnikiem, aby pomniejszyć; na zielone strzałki, aby przejść do map sąsiednich.


METAR-TAF: